Time;durP1;ratioP1;P1;durP2;ratioP2;P2;SDS_P1;SDS_P2;PMS_P1;PMS_P2;Temp;Humidity;BMP_temperature;BMP_pressure;BME280_temperature;BME280_humidity;BME280_pressure;Samples;Min_cycle;Max_cycle;Signal;HPM_P1;HPM_P2
2022/07/25 14:57:58;;;;;;;1999.90;999.90;;;;;;;;;;4799355;28;20390;-67
2022/07/25 15:01:07;;;;;;;;;;;;;;;;;;;;;
2022/07/25 15:04:24;;;;;;;;;;;;;;;;;;;;;
2022/07/25 15:14:00;;;;;;;;;;;;;;;;;;;;;
2022/07/25 15:17:06;;;;;;;;;;;;;;;;;;;;;
2022/07/25 15:30:14;;;;;;;1999.90;999.90;;;;;;;;;;4817167;28;20507;-67
2022/07/25 15:33:28;;;;;;;;;;;;;;;;;;;;;
2022/07/25 15:35:57;;;;;;;;;;;;;;;;;;4847759;28;20215;-67
2022/07/25 15:39:23;;;;;;;;;;;;;;;;;;;;;
2022/07/25 15:42:35;;;;;;;;;;;;;;;;;;;;;
2022/07/25 15:45:25;;;;;;;1999.90;999.90;;;;;;;;;;4771121;29;20205;-67
2022/07/25 15:48:06;;;;;;;1999.90;999.90;;;;;;;;;;4878774;28;20231;-67
2022/07/25 15:51:20;;;;;;;;;;;;;;;;;;;;;
2022/07/25 15:54:42;;;;;;;;;;;;;;;;;;;;;
2022/07/25 15:57:58;;;;;;;;;;;;;;;;;;;;;
2022/07/25 16:04:04;;;;;;;1999.90;999.90;;;;;;;;;;4738265;29;20185;-67
2022/07/25 16:17:12;;;;;;;1999.90;999.90;;;;;;;;;;4692991;29;20535;-67
2022/07/25 19:12:38;;;;;;;1999.90;999.90;;;;;;;;;;5123940;23;21462;-72
2022/07/25 19:15:03;;;;;;;1999.90;999.90;;;;;;;;;;5026272;28;20077;-71
2022/07/25 19:17:30;;;;;;;1999.90;999.90;;;;;;;;;;5031038;28;20025;-71
2022/07/25 19:19:55;;;;;;;1999.90;999.90;;;;;;;;;;5032012;28;20071;-72
2022/07/25 19:22:21;;;;;;;1999.90;999.90;;;;;;;;;;5030847;28;20061;-72
2022/07/25 19:24:46;;;;;;;1999.90;999.90;;;;;;;;;;5026018;28;20433;-72
2022/07/25 19:27:11;;;;;;;1999.90;999.90;;;;;;;;;;5016554;28;20037;-71
2022/07/25 19:29:37;;;;;;;1999.90;999.90;;;;;;;;;;5024836;28;20673;-72
2022/07/25 19:32:02;;;;;;;1999.90;999.90;;;;;;;;;;5022630;28;20451;-72
2022/07/25 19:34:27;;;;;;;1999.90;999.90;;;;;;;;;;5028556;28;20032;-71
2022/07/25 19:36:54;;;;;;;1999.90;999.90;;;;;;;;;;5030313;28;20467;-71
2022/07/25 19:39:19;;;;;;;1999.90;999.90;;;;;;;;;;5029858;28;20416;-71
2022/07/25 19:41:45;;;;;;;1999.90;999.90;;;;;;;;;;5029641;28;20065;-72
2022/07/25 19:44:10;;;;;;;1999.90;999.90;;;;;;;;;;5029721;28;20037;-72
2022/07/25 19:46:35;;;;;;;1999.90;999.90;;;;;;;;;;5029706;28;20074;-71
2022/07/25 19:49:02;;;;;;;1999.90;999.90;;;;;;;;;;5029510;28;20017;-71
2022/07/25 19:51:29;;;;;;;1999.90;999.90;;;;;;;;;;5025399;28;20083;-71
2022/07/25 19:53:54;;;;;;;1999.90;999.90;;;;;;;;;;5030062;28;20108;-71
2022/07/25 19:56:20;;;;;;;1999.90;999.90;;;;;;;;;;5028914;28;20956;-71
2022/07/25 19:58:45;;;;;;;1999.90;999.90;;;;;;;;;;5029828;28;20552;-72
2022/07/25 20:01:11;;;;;;;1999.90;999.90;;;;;;;;;;5029305;28;20029;-71
2022/07/25 20:03:36;;;;;;;1999.90;999.90;;;;;;;;;;5027851;28;20400;-72
2022/07/25 20:06:01;;;;;;;1999.90;999.90;;;;;;;;;;5020988;28;20021;-72
2022/07/25 20:08:27;;;;;;;1999.90;999.90;;;;;;;;;;5029188;28;20460;-71
2022/07/25 20:10:52;;;;;;;1999.90;999.90;;;;;;;;;;5028823;28;20109;-71
2022/07/25 20:13:17;;;;;;;1999.90;999.90;;;;;;;;;;5024104;28;20361;-72
2022/07/25 20:15:43;;;;;;;1999.90;999.90;;;;;;;;;;5029229;28;20059;-72
2022/07/25 20:18:08;;;;;;;1999.90;999.90;;;;;;;;;;5029627;28;20032;-72
2022/07/25 20:20:33;;;;;;;1999.90;999.90;;;;;;;;;;5028911;28;20041;-72
2022/07/25 20:22:59;;;;;;;1999.90;999.90;;;;;;;;;;5029735;28;20032;-71
2022/07/25 20:25:24;;;;;;;1999.90;999.90;;;;;;;;;;5030089;28;20022;-72
2022/07/25 20:27:49;;;;;;;1999.90;999.90;;;;;;;;;;5029127;28;20037;-71
2022/07/25 20:30:15;;;;;;;3.65;1.15;;;;;;;;;;5028724;28;20433;-72
2022/07/25 20:32:41;;;;;;;0.93;0.55;;;;;;;;;;5027425;28;20022;-71
2022/07/25 20:35:07;;;;;;;0.20;0.20;;;;;;;;;;5025744;28;20053;-71
2022/07/25 20:37:32;;;;;;;0.38;0.30;;;;;;;;;;5029846;28;20044;-71
2022/07/25 20:39:57;;;;;;;2.60;0.65;;;;;;;;;;5028136;28;20071;-71
2022/07/25 20:42:22;;;;;;;3.20;0.47;;;;;;;;;;5029490;28;20037;-71
2022/07/25 20:44:48;;;;;;;2.28;0.50;;;;;;;;;;5024000;28;20014;-71
2022/07/25 20:47:14;;;;;;;0.40;0.32;;;;;;;;;;5027659;28;20065;-72
2022/07/25 20:49:40;;;;;;;0.73;0.47;;;;;;;;;;5028017;28;20518;-71
2022/07/25 20:52:07;;;;;;;10.75;1.25;;;;;;;;;;5029293;28;20021;-71
2022/07/25 20:54:32;;;;;;;1.02;0.65;;;;;;;;;;5029639;28;20024;-71
2022/07/25 20:56:57;;;;;;;2.30;0.40;;;;;;;;;;5029022;28;20034;-70
2022/07/25 20:59:22;;;;;;;1.33;0.85;;;;;;;;;;5029121;28;20361;-72
2022/07/25 21:01:48;;;;;;;0.93;0.50;;;;;;;;;;5028207;28;20035;-71
2022/07/25 21:04:15;;;;;;;1.98;0.38;;;;;;;;;;5027461;28;20562;-71
2022/07/25 21:06:40;;;;;;;3.03;0.85;;;;;;;;;;5025436;28;20036;-72
2022/07/25 21:09:07;;;;;;;0.55;0.35;;;;;;;;;;5028547;28;20021;-71
2022/07/25 21:11:33;;;;;;;0.20;0.20;;;;;;;;;;5037836;28;20078;-72
2022/07/25 21:13:58;;;;;;;0.35;0.35;;;;;;;;;;5033042;28;20065;-72
2022/07/25 21:16:25;;;;;;;3.67;0.73;;;;;;;;;;5030486;28;20064;-72
2022/07/25 21:18:53;;;;;;;1.52;0.60;;;;;;;;;;5032463;28;20029;-71
2022/07/25 21:21:18;;;;;;;0.43;0.30;;;;;;;;;;5030895;28;20104;-71
2022/07/25 21:23:44;;;;;;;0.85;0.65;;;;;;;;;;5033781;28;20108;-71
2022/07/25 21:26:09;;;;;;;0.80;0.57;;;;;;;;;;5023840;28;20034;-71
2022/07/25 21:28:34;;;;;;;1.42;0.55;;;;;;;;;;5033113;28;20025;-71
2022/07/25 21:31:00;;;;;;;3.22;0.60;;;;;;;;;;5028355;28;20438;-71
2022/07/25 21:33:25;;;;;;;0.93;0.85;;;;;;;;;;5031087;28;20116;-71
2022/07/25 21:35:50;;;;;;;0.75;0.60;;;;;;;;;;5033001;28;20053;-71
2022/07/25 21:38:15;;;;;;;0.90;0.60;;;;;;;;;;5032458;28;20025;-72
2022/07/25 21:40:41;;;;;;;0.65;0.50;;;;;;;;;;5031127;28;20411;-72
2022/07/25 21:43:06;;;;;;;1.60;0.40;;;;;;;;;;5033464;28;20432;-72
2022/07/25 21:45:31;;;;;;;0.40;0.40;;;;;;;;;;5032606;28;20025;-72
2022/07/25 21:47:57;;;;;;;14.57;0.73;;;;;;;;;;5032496;28;20040;-71
2022/07/25 21:50:37;;;;;;;0.38;0.38;;;;;;;;;;5028856;28;20111;-71
2022/07/25 21:53:05;;;;;;;0.57;0.40;;;;;;;;;;5031809;28;20659;-71
2022/07/25 21:55:30;;;;;;;10.55;0.95;;;;;;;;;;5032224;28;20044;-72
2022/07/25 21:57:56;;;;;;;1.35;0.47;;;;;;;;;;5030971;28;20034;-71
2022/07/25 22:00:21;;;;;;;2.80;0.65;;;;;;;;;;5033722;28;20091;-72
2022/07/25 22:02:47;;;;;;;2.00;0.70;;;;;;;;;;5016882;28;20037;-71
2022/07/25 22:05:12;;;;;;;0.77;0.47;;;;;;;;;;5034842;28;20025;-71
2022/07/25 22:07:38;;;;;;;1.45;0.90;;;;;;;;;;5035042;28;20048;-72
2022/07/25 22:10:04;;;;;;;0.90;0.40;;;;;;;;;;5034915;28;20029;-71
2022/07/25 22:12:30;;;;;;;3.47;0.60;;;;;;;;;;5027495;28;20025;-72
2022/07/25 22:14:55;;;;;;;0.93;0.57;;;;;;;;;;5035637;28;20052;-71
2022/07/25 22:17:20;;;;;;;11.93;0.80;;;;;;;;;;5035238;28;20432;-72
2022/07/25 22:19:45;;;;;;;3.58;0.43;;;;;;;;;;5029473;28;20039;-71
2022/07/25 22:22:11;;;;;;;1.38;0.60;;;;;;;;;;5031005;28;20036;-72
2022/07/25 22:24:36;;;;;;;0.80;0.60;;;;;;;;;;5034368;28;20037;-71
2022/07/25 22:27:01;;;;;;;1.55;0.52;;;;;;;;;;5035336;28;20049;-71
2022/07/25 22:29:27;;;;;;;5.20;1.15;;;;;;;;;;5029634;28;20061;-72
2022/07/25 22:31:52;;;;;;;2.85;0.85;;;;;;;;;;5034457;28;20095;-72
2022/07/25 22:34:17;;;;;;;3.33;0.80;;;;;;;;;;5034732;28;20022;-71
2022/07/25 22:36:43;;;;;;;2.72;0.93;;;;;;;;;;5035296;28;20104;-72
2022/07/25 22:39:09;;;;;;;3.22;1.08;;;;;;;;;;5033730;28;20084;-72
2022/07/25 22:41:34;;;;;;;4.05;0.73;;;;;;;;;;5032315;28;20030;-71
2022/07/25 22:43:59;;;;;;;3.63;0.82;;;;;;;;;;5034839;28;20360;-72
2022/07/25 22:46:28;;;;;;;5.75;0.98;;;;;;;;;;5032303;28;20404;-71
2022/07/25 22:48:53;;;;;;;3.97;0.82;;;;;;;;;;5034574;28;20017;-72
2022/07/25 22:51:18;;;;;;;14.35;1.17;;;;;;;;;;5033163;28;20021;-71
2022/07/25 22:53:44;;;;;;;3.35;0.90;;;;;;;;;;5034912;28;20032;-72
2022/07/25 22:56:10;;;;;;;1.60;0.60;;;;;;;;;;5034300;28;20041;-72
2022/07/25 22:58:35;;;;;;;3.92;1.00;;;;;;;;;;5034366;28;20132;-71
2022/07/25 23:01:00;;;;;;;2.35;0.80;;;;;;;;;;5031906;28;20044;-72
2022/07/25 23:03:25;;;;;;;2.78;0.88;;;;;;;;;;5034519;28;20026;-72
2022/07/25 23:05:51;;;;;;;4.35;1.00;;;;;;;;;;5034210;28;20025;-71
2022/07/25 23:08:16;;;;;;;4.20;1.00;;;;;;;;;;5034683;28;20036;-71
2022/07/25 23:10:41;;;;;;;4.05;1.00;;;;;;;;;;5036575;28;20036;-72
2022/07/25 23:13:06;;;;;;;3.80;0.88;;;;;;;;;;5034403;28;20094;-71
2022/07/25 23:15:32;;;;;;;3.25;0.70;;;;;;;;;;5032821;28;20048;-72
2022/07/25 23:17:57;;;;;;;3.28;0.85;;;;;;;;;;5033649;28;20375;-72
2022/07/25 23:20:22;;;;;;;3.08;0.90;;;;;;;;;;5031506;28;20038;-72
2022/07/25 23:22:48;;;;;;;2.63;1.05;;;;;;;;;;5034369;28;20079;-71
2022/07/25 23:25:13;;;;;;;3.53;1.00;;;;;;;;;;5033581;28;20052;-72
2022/07/25 23:27:38;;;;;;;3.53;1.10;;;;;;;;;;5034198;28;20026;-72
2022/07/25 23:30:05;;;;;;;4.78;1.50;;;;;;;;;;5031389;28;20029;-71
2022/07/25 23:32:30;;;;;;;6.43;1.00;;;;;;;;;;5027440;28;20021;-72
2022/07/25 23:34:55;;;;;;;4.10;1.10;;;;;;;;;;5032111;28;20100;-71
2022/07/25 23:37:20;;;;;;;1.60;0.68;;;;;;;;;;5034381;28;20108;-72
2022/07/25 23:39:46;;;;;;;4.55;1.00;;;;;;;;;;5033137;28;20039;-72
2022/07/25 23:42:11;;;;;;;3.88;1.10;;;;;;;;;;5033892;28;20032;-72
2022/07/25 23:44:36;;;;;;;7.13;1.10;;;;;;;;;;5032807;28;20116;-72
2022/07/25 23:47:02;;;;;;;4.70;0.95;;;;;;;;;;5032716;28;20445;-72
2022/07/25 23:49:27;;;;;;;2.95;1.10;;;;;;;;;;5033412;28;20025;-72
2022/07/25 23:51:53;;;;;;;3.83;0.95;;;;;;;;;;5033776;28;20500;-71
2022/07/25 23:54:18;;;;;;;5.95;1.10;;;;;;;;;;5033100;28;20066;-72
2022/07/25 23:56:44;;;;;;;4.28;1.02;;;;;;;;;;5033677;28;20096;-71
2022/07/25 23:59:09;;;;;;;3.00;0.85;;;;;;;;;;5033031;28;20361;-71
